createdAt,value
2022-11-19T00:03:25.218Z,4.8
2022-11-19T00:08:25.199Z,5
2022-11-19T00:13:25.206Z,5
2022-11-19T00:18:25.273Z,5.5
2022-11-19T00:23:43.558Z,6.6
2022-11-19T00:28:25.267Z,6.6
2022-11-19T00:33:25.222Z,6.6
2022-11-19T00:38:25.248Z,6.7
2022-11-19T00:43:25.212Z,6.7
2022-11-19T00:48:25.199Z,6.9
2022-11-19T00:53:25.217Z,6.9
2022-11-19T00:58:25.279Z,6.7
2022-11-19T01:03:25.212Z,7
2022-11-19T01:08:25.215Z,7.1
2022-11-19T01:13:25.222Z,7.1
2022-11-19T01:18:25.993Z,7.4
2022-11-19T01:23:40.834Z,7.4
2022-11-19T01:28:25.243Z,7.4
2022-11-19T01:33:25.264Z,7.4
2022-11-19T01:38:25.240Z,7.4
2022-11-19T01:43:25.245Z,7.4
2022-11-19T01:48:25.259Z,7.4
2022-11-19T01:53:25.280Z,7.4
2022-11-19T01:58:25.253Z,7.4
2022-11-19T02:03:25.554Z,7.2
2022-11-19T02:08:25.208Z,7.4
2022-11-19T02:13:25.347Z,7.4
2022-11-19T02:18:25.248Z,7.2
2022-11-19T02:23:25.594Z,6.9
2022-11-19T02:28:25.426Z,6.4
2022-11-19T02:33:25.243Z,5.4
2022-11-19T02:38:25.251Z,5.3
2022-11-19T02:43:25.234Z,5.2
2022-11-19T02:48:25.253Z,4.1
2022-11-19T02:53:25.273Z,3.9
2022-11-19T02:58:25.235Z,3.9
2022-11-19T03:03:25.260Z,3.9
2022-11-19T03:08:25.287Z,3.9
2022-11-19T03:13:25.319Z,3.9
2022-11-19T03:18:25.287Z,4.2
2022-11-19T03:23:25.490Z,4.2
2022-11-19T03:28:25.393Z,4.2
2022-11-19T03:33:25.260Z,4.4
2022-11-19T03:38:25.212Z,4.4
2022-11-19T03:43:25.272Z,5
2022-11-19T03:48:25.275Z,5.1
2022-11-19T03:53:25.431Z,5.2
2022-11-19T03:58:25.314Z,5.2
2022-11-19T04:03:25.311Z,5.3
2022-11-19T04:08:25.260Z,5.3
2022-11-19T04:13:25.459Z,5.4
2022-11-19T04:18:25.314Z,5.4
2022-11-19T04:23:25.625Z,5.4
2022-11-19T04:28:25.360Z,5.4
2022-11-19T04:33:25.296Z,5.6
2022-11-19T04:38:25.370Z,6.2
2022-11-19T04:43:25.327Z,6.5
2022-11-19T04:48:25.338Z,6.7
2022-11-19T04:53:25.294Z,7
2022-11-19T04:58:25.324Z,7.4
2022-11-19T05:03:25.363Z,7.5
2022-11-19T05:08:25.310Z,7.7
2022-11-19T05:13:25.327Z,7.8
2022-11-19T05:18:25.322Z,8.2
2022-11-19T05:23:25.406Z,8.3
2022-11-19T05:28:38.338Z,8.7
2022-11-19T05:33:26.755Z,8.9
2022-11-19T05:38:25.284Z,9.1
2022-11-19T05:43:25.410Z,9.1
2022-11-19T05:48:25.325Z,9.2
2022-11-19T05:53:25.304Z,9.2
2022-11-19T05:58:25.322Z,9.4
2022-11-19T06:03:25.271Z,9.8
2022-11-19T06:08:25.447Z,9.8
2022-11-19T06:13:25.277Z,9.8
2022-11-19T06:18:25.293Z,9.8
2022-11-19T06:23:25.318Z,9.8
2022-11-19T06:28:25.621Z,9.8
2022-11-19T06:33:25.363Z,10.1
2022-11-19T06:38:25.306Z,10.7
2022-11-19T06:43:25.317Z,11.8
2022-11-19T06:48:25.302Z,11.8
2022-11-19T06:53:25.360Z,12.1
2022-11-19T06:58:25.346Z,12.7
2022-11-19T07:03:25.357Z,12.7
2022-11-19T07:08:25.358Z,13.5
2022-11-19T07:13:25.300Z,14.3
2022-11-19T07:18:25.315Z,14.1
2022-11-19T07:28:25.388Z,16.7
2022-11-19T07:33:25.267Z,17.8
2022-11-19T07:38:25.276Z,18.9
2022-11-19T07:43:25.340Z,17.8
2022-11-19T07:48:25.353Z,16.7
2022-11-19T07:53:25.278Z,17.4
2022-11-19T07:58:25.323Z,18.1
2022-11-19T08:03:25.271Z,18.9
2022-11-19T08:08:25.280Z,19.5
2022-11-19T08:13:25.279Z,19.5
2022-11-19T08:18:31.608Z,20.4
2022-11-19T08:23:25.330Z,21.6
2022-11-19T08:28:25.343Z,21.8
2022-11-19T08:33:25.266Z,22.2
2022-11-19T08:38:25.269Z,22.4
2022-11-19T08:43:25.272Z,22.6
2022-11-19T08:48:25.277Z,23
2022-11-19T08:53:25.282Z,23
2022-11-19T08:58:25.281Z,22.8
2022-11-19T09:03:25.352Z,22.8
2022-11-19T09:08:25.294Z,22.8
2022-11-19T09:13:25.257Z,23.1
2022-11-19T09:18:25.297Z,23.1
2022-11-19T09:23:25.258Z,24.4
2022-11-19T09:28:25.366Z,24.4
2022-11-19T09:33:25.312Z,24.4
2022-11-19T09:38:25.330Z,24.4
2022-11-19T09:43:25.265Z,24.4
2022-11-19T09:48:25.293Z,23.6
2022-11-19T09:53:25.255Z,23.6
2022-11-19T09:58:25.266Z,22.4
2022-11-19T10:03:33.052Z,23.5
2022-11-19T10:08:25.271Z,21.5
2022-11-19T10:13:25.259Z,21.4
2022-11-19T10:18:25.281Z,21.4
2022-11-19T10:23:25.300Z,21.5
2022-11-19T10:28:25.335Z,22.8
2022-11-19T10:33:25.300Z,22.8
2022-11-19T10:38:25.303Z,22.5
2022-11-19T10:43:25.331Z,22.5
2022-11-19T10:48:25.312Z,22.5
2022-11-19T10:53:25.428Z,22.3
2022-11-19T10:58:25.306Z,21.4
2022-11-19T11:03:25.359Z,21.4
2022-11-19T11:08:25.276Z,21.4
2022-11-19T11:13:25.303Z,22.3
2022-11-19T11:18:25.249Z,22.7
2022-11-19T11:23:25.298Z,23.4
2022-11-19T11:28:25.342Z,23.4
2022-11-19T11:33:25.300Z,23.4
2022-11-19T11:38:25.261Z,22.7
2022-11-19T11:43:25.280Z,22.2
2022-11-19T11:48:25.347Z,21.2
2022-11-19T11:53:25.287Z,21.1
2022-11-19T11:58:25.301Z,21.1
2022-11-19T12:03:25.317Z,21.1
2022-11-19T12:08:28.494Z,21.2
2022-11-19T12:13:25.303Z,21.2
2022-11-19T12:18:25.316Z,21.2
2022-11-19T12:23:25.300Z,21.2
2022-11-19T12:28:25.361Z,21.2
2022-11-19T12:33:25.276Z,21.2
2022-11-19T12:38:25.393Z,21.2
2022-11-19T12:43:25.317Z,21.2
2022-11-19T12:48:25.329Z,21.7
2022-11-19T12:53:26.143Z,21.7
2022-11-19T12:58:25.287Z,21.3
2022-11-19T13:03:25.305Z,21.3
2022-11-19T13:08:25.355Z,21.3
2022-11-19T13:13:25.292Z,20
2022-11-19T13:18:25.316Z,19.7
2022-11-19T13:23:25.348Z,19.7
2022-11-19T13:28:25.312Z,19.7
2022-11-19T13:33:25.310Z,20
2022-11-19T13:38:47.888Z,20.7
2022-11-19T13:43:48.010Z,21.9
2022-11-19T13:48:47.685Z,22.6
2022-11-19T13:53:47.689Z,22.6
2022-11-19T13:58:47.752Z,22.6
2022-11-19T14:03:47.710Z,22.6
2022-11-19T14:08:47.714Z,22
2022-11-19T14:13:47.725Z,18.6
2022-11-19T14:18:54.799Z,18.3
2022-11-19T14:23:47.728Z,18.3
2022-11-19T14:28:47.727Z,17.5
2022-11-19T14:33:47.708Z,17.5
2022-11-19T14:38:47.729Z,17.3
2022-11-19T14:43:47.818Z,17.2
2022-11-19T14:48:47.754Z,17.3
2022-11-19T14:53:47.712Z,17.3
2022-11-19T14:58:47.732Z,17.3
2022-11-19T15:03:47.885Z,17.3
2022-11-19T15:08:47.716Z,17.9
2022-11-19T15:13:47.665Z,18.4
2022-11-19T15:18:47.706Z,19.8
2022-11-19T15:23:47.697Z,22.5
2022-11-19T15:28:47.817Z,25.8
2022-11-19T15:33:47.692Z,30
2022-11-19T15:38:47.687Z,30
2022-11-19T15:43:47.677Z,30
2022-11-19T15:48:47.739Z,29.7
2022-11-19T15:53:47.749Z,36.1
2022-11-19T15:58:47.756Z,36.1
2022-11-19T16:03:47.686Z,29.7
2022-11-19T16:09:33.977Z,24.3
2022-11-19T16:14:33.918Z,24
2022-11-19T16:19:33.811Z,23
2022-11-19T16:24:34.681Z,20.3
2022-11-19T16:29:33.774Z,20.3
2022-11-19T16:34:33.669Z,20
2022-11-19T16:39:33.898Z,20
2022-11-19T16:44:33.721Z,20
2022-11-19T16:54:33.776Z,30.9
2022-11-19T16:59:33.687Z,26.4
2022-11-19T17:04:33.676Z,21.9
2022-11-19T17:09:33.696Z,25.2
2022-11-19T17:14:33.674Z,27.9
2022-11-19T17:19:33.709Z,25.75
2022-11-19T17:24:33.686Z,23.6
2022-11-19T17:29:33.671Z,23.6
2022-11-19T17:34:33.671Z,23.9
2022-11-19T17:39:33.646Z,26.2
2022-11-19T17:44:33.661Z,24.7
2022-11-19T17:49:33.673Z,24.6
2022-11-19T17:54:33.774Z,24.6
2022-11-19T17:59:33.696Z,24.6
2022-11-19T18:04:33.696Z,24.7
2022-11-19T18:09:36.724Z,24.7
2022-11-19T18:14:33.631Z,24.7
2022-11-19T18:19:33.800Z,25
2022-11-19T18:24:33.659Z,25.1
2022-11-19T18:29:33.674Z,25.1
2022-11-19T18:34:33.694Z,25.5
2022-11-19T18:39:33.650Z,26
2022-11-19T18:44:33.687Z,26
2022-11-19T18:49:33.771Z,26
2022-11-19T18:54:33.765Z,26
2022-11-19T18:59:33.686Z,24.7
2022-11-19T19:04:33.676Z,25.7
2022-11-19T19:09:33.698Z,24.7
2022-11-19T19:14:33.756Z,24.7
2022-11-19T19:19:33.837Z,24
2022-11-19T19:24:33.668Z,23.4
2022-11-19T19:29:33.720Z,23.2
2022-11-19T19:34:33.709Z,23.2
2022-11-19T19:39:33.698Z,23.2
2022-11-19T19:44:33.778Z,23.4
2022-11-19T19:49:39.765Z,23.2
2022-11-19T19:54:33.712Z,22.7
2022-11-19T19:59:33.708Z,23.4
2022-11-19T20:04:33.666Z,23.6
2022-11-19T20:09:33.714Z,23.4
2022-11-19T20:14:33.664Z,24.9
2022-11-19T20:19:33.829Z,24.9
2022-11-19T20:24:33.712Z,24.9
2022-11-19T20:29:33.666Z,28.1
2022-11-19T20:34:33.648Z,28.1
2022-11-19T20:39:33.710Z,27
2022-11-19T20:44:33.735Z,28.1
2022-11-19T20:49:33.832Z,27
2022-11-19T20:54:33.727Z,28.1
2022-11-19T20:59:33.756Z,28.1
2022-11-19T21:04:33.716Z,28.1
2022-11-19T21:09:33.707Z,30.5
2022-11-19T21:14:33.702Z,30.8
2022-11-19T21:19:33.720Z,32
2022-11-19T21:24:33.714Z,32
2022-11-19T21:29:33.707Z,32
2022-11-19T21:34:33.864Z,31
2022-11-19T21:39:33.754Z,30.5
2022-11-19T21:44:33.687Z,29.6
2022-11-19T21:49:33.712Z,29.6
2022-11-19T21:54:33.698Z,28.1
2022-11-19T21:59:33.768Z,28.1
2022-11-19T22:04:33.707Z,29.6
2022-11-19T22:09:33.703Z,29.6
2022-11-19T22:14:33.728Z,32.1
2022-11-19T22:19:33.714Z,32.1
2022-11-19T22:24:33.730Z,32.1
2022-11-19T22:29:33.752Z,32.1
2022-11-19T22:34:33.751Z,31.2
2022-11-19T22:39:33.699Z,31.2
2022-11-19T22:44:33.752Z,31.2
2022-11-19T22:49:33.683Z,31.2
2022-11-19T22:54:41.315Z,36.7
2022-11-19T22:59:33.743Z,38.8
2022-11-19T23:04:33.719Z,38.8
2022-11-19T23:09:33.757Z,38.8
2022-11-19T23:14:33.717Z,36.7
2022-11-19T23:19:33.749Z,32.6
2022-11-19T23:24:33.686Z,31.8
2022-11-19T23:29:33.927Z,29.5
2022-11-19T23:34:33.715Z,29.2
2022-11-19T23:39:33.741Z,29
2022-11-19T23:44:33.748Z,28.4
2022-11-19T23:49:33.734Z,28.2
2022-11-19T23:54:33.739Z,28.2
2022-11-19T23:59:33.727Z,28.2
